createdAt,value
2018-11-07T00:00:21.493Z,12.45
2018-11-07T00:02:50.727Z,12.36
2018-11-07T00:05:20.567Z,12.37
2018-11-07T00:07:49.864Z,12.32
2018-11-07T00:10:18.989Z,12.24
2018-11-07T00:12:48.126Z,12.27
2018-11-07T00:15:17.303Z,12.20
2018-11-07T00:17:46.466Z,12.26
2018-11-07T00:20:15.649Z,12.23
2018-11-07T00:22:44.789Z,12.21
2018-11-07T00:25:13.958Z,12.18
2018-11-07T00:27:43.158Z,12.14
2018-11-07T00:30:12.576Z,12.05
2018-11-07T00:32:41.729Z,12.00
2018-11-07T00:35:12.492Z,11.94
2018-11-07T00:37:42.637Z,11.82
2018-11-07T00:40:12.336Z,11.78
2018-11-07T00:42:41.515Z,11.70
2018-11-07T00:45:12.697Z,11.63
2018-11-07T00:47:42.188Z,11.49
2018-11-07T00:50:15.878Z,11.50
2018-11-07T00:52:45.491Z,11.44
2018-11-07T00:55:15.629Z,11.43
2018-11-07T00:57:45.227Z,11.36
2018-11-07T01:00:18.106Z,11.29
2018-11-07T01:02:48.201Z,11.21
2018-11-07T01:05:17.424Z,11.14
2018-11-07T01:07:47.648Z,11.13
2018-11-07T01:10:16.949Z,11.05
2018-11-07T01:12:46.140Z,11.16
2018-11-07T01:15:15.458Z,11.29
2018-11-07T01:17:44.734Z,11.26
2018-11-07T01:20:14.564Z,11.19
2018-11-07T01:22:44.188Z,11.16
2018-11-07T01:25:13.459Z,11.09
2018-11-07T01:27:42.627Z,11.07
2018-11-07T01:30:13.898Z,10.97
2018-11-07T01:32:43.139Z,10.92
2018-11-07T01:35:12.456Z,10.98
2018-11-07T01:37:41.693Z,10.96
2018-11-07T01:40:13.038Z,10.98
2018-11-07T01:42:42.639Z,10.94
2018-11-07T01:45:12.609Z,10.89
2018-11-07T01:47:41.862Z,10.75
2018-11-07T01:50:12.777Z,10.69
2018-11-07T01:52:42.139Z,10.62
2018-11-07T01:55:12.041Z,10.56
2018-11-07T01:57:41.257Z,10.49
2018-11-07T02:00:12.056Z,10.42
2018-11-07T02:02:42.583Z,10.37
2018-11-07T02:05:12.116Z,10.25
2018-11-07T02:07:41.793Z,10.39
2018-11-07T02:10:11.536Z,10.45
2018-11-07T02:12:41.518Z,10.37
2018-11-07T02:15:11.673Z,10.32
2018-11-07T02:17:41.022Z,10.25
2018-11-07T02:20:12.118Z,10.13
2018-11-07T02:22:41.787Z,10.12
2018-11-07T02:25:11.113Z,10.23
2018-11-07T02:27:40.953Z,10.35
2018-11-07T02:30:11.851Z,10.50
2018-11-07T02:32:41.266Z,10.51
2018-11-07T02:35:10.455Z,10.49
2018-11-07T02:37:39.728Z,10.44
2018-11-07T02:40:09.433Z,10.46
2018-11-07T02:42:38.806Z,10.42
2018-11-07T02:45:08.228Z,10.43
2018-11-07T02:47:37.914Z,10.38
2018-11-07T02:50:08.223Z,10.34
2018-11-07T02:52:37.511Z,10.28
2018-11-07T02:55:06.914Z,10.22
2018-11-07T02:57:36.165Z,10.17
2018-11-07T03:00:08.267Z,10.13
2018-11-07T03:02:37.602Z,10.02
2018-11-07T03:05:07.181Z,9.95
2018-11-07T03:07:36.785Z,9.89
2018-11-07T03:10:07.628Z,9.84
2018-11-07T03:12:36.953Z,9.79
2018-11-07T03:15:06.490Z,9.74
2018-11-07T03:17:36.236Z,9.69
2018-11-07T03:20:07.463Z,9.65
2018-11-07T03:22:36.646Z,9.63
2018-11-07T03:25:06.098Z,9.69
2018-11-07T03:27:35.498Z,9.66
2018-11-07T03:30:06.053Z,9.60
2018-11-07T03:32:35.191Z,9.53
2018-11-07T03:35:04.507Z,9.49
2018-11-07T03:37:33.682Z,9.45
2018-11-07T03:40:04.056Z,9.39
2018-11-07T03:42:33.228Z,9.30
2018-11-07T03:45:02.411Z,9.29
2018-11-07T03:47:31.603Z,9.29
2018-11-07T03:50:00.827Z,9.27
2018-11-07T03:52:30.146Z,9.24
2018-11-07T03:54:59.342Z,9.18
2018-11-07T03:57:29.184Z,9.08
2018-11-07T03:59:58.609Z,8.98
2018-11-07T04:02:27.784Z,8.91
2018-11-07T04:04:57.386Z,8.88
2018-11-07T04:07:26.830Z,8.81
2018-11-07T04:09:56.007Z,8.75
2018-11-07T04:12:25.245Z,8.72
2018-11-07T04:14:54.561Z,8.65
2018-11-07T04:17:23.759Z,8.59
2018-11-07T04:19:53.041Z,8.56
2018-11-07T04:22:22.226Z,8.56
2018-11-07T04:24:51.392Z,8.51
2018-11-07T04:27:20.635Z,8.42
2018-11-07T04:29:50.839Z,8.36
2018-11-07T04:32:20.020Z,8.31
2018-11-07T04:34:49.234Z,8.26
2018-11-07T04:37:18.407Z,8.21
2018-11-07T04:39:47.631Z,8.18
2018-11-07T04:42:16.941Z,8.13
2018-11-07T04:44:46.114Z,8.09
2018-11-07T04:47:15.342Z,8.06
2018-11-07T04:49:44.490Z,8.04
2018-11-07T04:52:14.048Z,7.98
2018-11-07T04:54:43.242Z,7.91
2018-11-07T04:57:12.490Z,7.88
2018-11-07T04:59:41.688Z,7.84
2018-11-07T05:02:10.939Z,7.78
2018-11-07T05:04:40.207Z,7.78
2018-11-07T05:07:13.726Z,7.72
2018-11-07T05:09:42.962Z,7.64
2018-11-07T05:12:12.161Z,7.59
2018-11-07T05:14:41.384Z,7.59
2018-11-07T05:17:10.625Z,7.55
2018-11-07T05:19:39.882Z,7.50
2018-11-07T05:22:09.062Z,7.46
2018-11-07T05:24:38.302Z,7.42
2018-11-07T05:27:08.246Z,7.38
2018-11-07T05:29:37.984Z,7.37
2018-11-07T05:32:07.332Z,7.35
2018-11-07T05:34:36.497Z,7.33
2018-11-07T05:37:06.316Z,7.29
2018-11-07T05:39:35.615Z,7.22
2018-11-07T05:42:04.882Z,7.24
2018-11-07T05:44:34.148Z,7.23
2018-11-07T05:47:03.406Z,7.23
2018-11-07T05:49:32.627Z,7.22
2018-11-07T05:52:01.843Z,7.23
2018-11-07T05:54:31.038Z,7.26
2018-11-07T05:57:00.870Z,7.27
2018-11-07T05:59:30.027Z,7.27
2018-11-07T06:01:59.235Z,7.27
2018-11-07T06:04:28.485Z,7.27
2018-11-07T06:06:57.696Z,7.29
2018-11-07T06:09:26.954Z,7.27
2018-11-07T06:11:56.147Z,7.34
2018-11-07T06:14:25.280Z,7.40
2018-11-07T06:16:54.840Z,7.47
2018-11-07T06:19:26.419Z,7.51
2018-11-07T06:21:55.628Z,7.55
2018-11-07T06:24:24.934Z,7.63
2018-11-07T06:26:54.055Z,7.68
2018-11-07T06:29:23.363Z,7.76
2018-11-07T06:31:52.494Z,7.81
2018-11-07T06:34:21.752Z,7.88
2018-11-07T06:36:50.959Z,8.06
2018-11-07T06:39:20.089Z,8.27
2018-11-07T06:41:50.118Z,8.39
2018-11-07T06:44:19.269Z,8.65
2018-11-07T06:46:48.390Z,8.75
2018-11-07T06:49:17.762Z,8.69
2018-11-07T06:51:46.966Z,8.68
2018-11-07T06:54:16.139Z,8.65
2018-11-07T06:56:45.460Z,8.61
2018-11-07T06:59:14.719Z,8.59
2018-11-07T07:01:44.129Z,8.65
2018-11-07T07:04:13.406Z,8.74
2018-11-07T07:06:42.602Z,8.81
2018-11-07T07:09:11.960Z,8.90
2018-11-07T07:11:41.324Z,8.98
2018-11-07T07:14:10.651Z,9.06
2018-11-07T07:16:39.839Z,9.15
2018-11-07T07:19:09.284Z,9.21
2018-11-07T07:21:38.539Z,9.28
2018-11-07T07:24:07.773Z,9.37
2018-11-07T07:26:37.705Z,9.42
2018-11-07T07:29:07.081Z,9.47
2018-11-07T07:31:36.292Z,9.51
2018-11-07T07:34:05.552Z,9.59
2018-11-07T07:36:34.764Z,9.68
2018-11-07T07:39:04.952Z,9.76
2018-11-07T07:41:34.127Z,9.81
2018-11-07T07:44:03.604Z,9.88
2018-11-07T07:46:32.936Z,9.93
2018-11-07T07:49:02.185Z,10.01
2018-11-07T07:51:32.385Z,10.10
2018-11-07T07:54:01.738Z,10.23
2018-11-07T07:56:31.156Z,10.39
2018-11-07T07:59:00.395Z,10.52
2018-11-07T08:01:29.608Z,10.68
2018-11-07T08:03:58.810Z,10.86
2018-11-07T08:06:28.086Z,10.97
2018-11-07T08:08:57.303Z,11.20
2018-11-07T08:11:26.503Z,11.46
2018-11-07T08:13:55.729Z,11.67
2018-11-07T08:16:24.918Z,11.72
2018-11-07T08:18:54.082Z,11.71
2018-11-07T08:21:23.377Z,11.86
2018-11-07T08:23:52.533Z,11.91
2018-11-07T08:26:21.769Z,11.90
2018-11-07T08:28:50.980Z,11.94
2018-11-07T08:31:20.174Z,12.09
2018-11-07T08:33:49.420Z,12.26
2018-11-07T08:36:18.836Z,12.50
2018-11-07T08:38:48.027Z,12.60
2018-11-07T08:41:17.218Z,12.63
2018-11-07T08:43:46.436Z,12.48
2018-11-07T08:46:15.687Z,12.69
2018-11-07T08:48:45.026Z,12.80
2018-11-07T08:51:14.189Z,12.92
2018-11-07T08:53:43.418Z,13.26
2018-11-07T08:56:12.648Z,13.06
2018-11-07T08:58:41.944Z,12.95
2018-11-07T09:01:11.187Z,13.21
2018-11-07T09:03:40.510Z,13.32
2018-11-07T09:06:09.698Z,13.17
2018-11-07T09:08:38.892Z,13.08
2018-11-07T09:11:08.338Z,13.32
2018-11-07T09:13:38.757Z,13.51
2018-11-07T09:16:07.944Z,13.77
2018-11-07T09:18:37.138Z,13.66
2018-11-07T09:21:06.442Z,13.46
2018-11-07T09:23:35.787Z,13.23
2018-11-07T09:26:05.599Z,13.27
2018-11-07T09:28:34.752Z,13.48
2018-11-07T09:31:03.997Z,13.59
2018-11-07T09:33:33.252Z,13.67
2018-11-07T09:36:02.480Z,13.67
2018-11-07T09:38:31.724Z,13.62
2018-11-07T09:41:00.940Z,13.64
2018-11-07T09:43:30.173Z,13.73
2018-11-07T09:45:59.391Z,13.85
2018-11-07T09:48:28.575Z,13.89
2018-11-07T09:50:57.801Z,13.92
2018-11-07T09:53:27.109Z,14.21
2018-11-07T09:55:56.281Z,14.23
2018-11-07T09:58:25.566Z,14.21
2018-11-07T10:00:54.787Z,14.06
2018-11-07T10:03:23.961Z,14.18
2018-11-07T10:05:53.154Z,14.22
2018-11-07T10:08:22.338Z,14.47
2018-11-07T10:10:51.486Z,14.26
2018-11-07T10:13:20.662Z,14.07
2018-11-07T10:15:49.877Z,14.33
2018-11-07T10:18:19.071Z,14.41
2018-11-07T10:20:48.279Z,14.54
2018-11-07T10:23:17.514Z,14.73
2018-11-07T10:25:46.706Z,14.83
2018-11-07T10:28:16.010Z,14.85
2018-11-07T10:30:45.102Z,14.77
2018-11-07T10:33:14.470Z,14.75
2018-11-07T10:35:43.654Z,14.89
2018-11-07T10:38:12.890Z,14.83
2018-11-07T10:40:42.062Z,14.75
2018-11-07T10:43:11.495Z,14.78
2018-11-07T10:45:40.769Z,14.94
2018-11-07T10:48:09.994Z,14.99
2018-11-07T10:50:39.316Z,15.05
2018-11-07T10:53:08.758Z,14.96
2018-11-07T10:55:38.004Z,15.01
2018-11-07T10:58:07.269Z,14.97
2018-11-07T11:00:41.703Z,15.15
2018-11-07T11:03:15.961Z,15.22
2018-11-07T11:05:45.277Z,15.26
2018-11-07T11:08:14.579Z,15.20
2018-11-07T11:10:43.747Z,15.17
2018-11-07T11:13:13.047Z,15.24
2018-11-07T11:15:42.225Z,15.42
2018-11-07T11:18:11.506Z,15.49
2018-11-07T11:20:40.674Z,15.35
2018-11-07T11:23:09.951Z,15.39
2018-11-07T11:25:39.189Z,15.42
2018-11-07T11:28:08.403Z,15.33
2018-11-07T11:30:37.622Z,15.44
2018-11-07T11:33:07.015Z,15.43
2018-11-07T11:35:36.241Z,15.56
2018-11-07T11:38:05.754Z,15.74
2018-11-07T11:40:35.668Z,15.82
2018-11-07T11:43:05.349Z,15.73
2018-11-07T11:45:34.582Z,15.81
2018-11-07T11:48:03.793Z,15.77
2018-11-07T11:50:32.963Z,15.77
2018-11-07T11:53:02.120Z,15.86
2018-11-07T11:55:31.328Z,15.86
2018-11-07T11:58:00.535Z,16.13
2018-11-07T12:00:29.823Z,16.18
2018-11-07T12:02:58.917Z,15.91
2018-11-07T12:05:28.085Z,15.97
2018-11-07T12:07:57.377Z,15.96
2018-11-07T12:10:27.037Z,16.03
2018-11-07T12:12:57.348Z,16.13
2018-11-07T12:15:27.571Z,16.01
2018-11-07T12:17:57.200Z,16.01
2018-11-07T12:20:26.377Z,16.06
2018-11-07T12:22:55.543Z,16.12
2018-11-07T12:25:24.760Z,16.18
2018-11-07T12:27:53.940Z,16.14
2018-11-07T12:30:24.007Z,16.21
2018-11-07T12:32:54.179Z,16.34
2018-11-07T12:35:23.566Z,16.41
2018-11-07T12:37:52.791Z,16.49
2018-11-07T12:40:21.998Z,16.47
2018-11-07T12:42:51.249Z,16.44
2018-11-07T12:45:20.484Z,16.50
2018-11-07T12:47:49.703Z,16.48
2018-11-07T12:50:21.602Z,16.59
2018-11-07T12:52:50.706Z,16.55
2018-11-07T12:55:20.722Z,16.58
2018-11-07T12:57:50.039Z,16.50
2018-11-07T13:00:21.534Z,16.48
2018-11-07T13:02:50.923Z,16.48
2018-11-07T13:05:20.747Z,16.47
2018-11-07T13:07:50.557Z,16.47
2018-11-07T13:10:20.908Z,16.40
2018-11-07T13:12:50.624Z,16.53
2018-11-07T13:15:19.946Z,16.54
2018-11-07T13:17:50.150Z,16.53
2018-11-07T13:20:20.667Z,16.60
2018-11-07T13:22:51.087Z,16.56
2018-11-07T13:25:20.709Z,16.50
2018-11-07T13:27:49.899Z,16.49
2018-11-07T13:30:20.294Z,16.53
2018-11-07T13:32:49.524Z,16.55
2018-11-07T13:35:19.430Z,16.62
2018-11-07T13:37:49.485Z,16.59
2018-11-07T13:40:20.014Z,16.56
2018-11-07T13:42:49.253Z,16.53
2018-11-07T13:45:19.830Z,16.52
2018-11-07T13:47:50.113Z,16.48
2018-11-07T13:50:20.060Z,16.48
2018-11-07T13:52:49.261Z,16.41
2018-11-07T13:55:18.426Z,16.39
2018-11-07T13:57:47.628Z,16.39
2018-11-07T14:00:18.317Z,16.42
2018-11-07T14:02:48.128Z,16.36
2018-11-07T14:05:17.402Z,16.32
2018-11-07T14:07:46.765Z,16.32
2018-11-07T14:10:26.571Z,16.28
2018-11-07T14:12:55.861Z,16.29
2018-11-07T14:15:25.034Z,16.28
2018-11-07T14:17:54.344Z,16.25
2018-11-07T14:20:23.630Z,16.27
2018-11-07T14:22:52.835Z,16.21
2018-11-07T14:25:22.023Z,16.20
2018-11-07T14:27:51.465Z,16.17
2018-11-07T14:30:21.195Z,16.19
2018-11-07T14:32:55.351Z,16.21
2018-11-07T14:35:24.631Z,16.21
2018-11-07T14:37:54.467Z,16.17
2018-11-07T14:40:23.670Z,16.11
2018-11-07T14:42:52.888Z,16.04
2018-11-07T14:45:22.373Z,15.95
2018-11-07T14:47:51.712Z,15.91
2018-11-07T14:50:20.874Z,15.84
2018-11-07T14:52:50.062Z,15.82
2018-11-07T14:55:19.257Z,15.74
2018-11-07T14:57:48.452Z,15.72
2018-11-07T15:00:18.082Z,15.75
2018-11-07T15:02:47.554Z,15.67
2018-11-07T15:05:17.591Z,15.58
2018-11-07T15:07:47.175Z,15.51
2018-11-07T15:10:17.152Z,15.41
2018-11-07T15:12:46.370Z,15.31
2018-11-07T15:15:16.912Z,15.18
2018-11-07T15:17:46.103Z,15.12
2018-11-07T15:20:16.220Z,15.01
2018-11-07T15:22:45.399Z,15.02
2018-11-07T15:25:15.611Z,14.91
2018-11-07T15:27:45.735Z,14.83
2018-11-07T15:30:15.793Z,14.75
2018-11-07T15:32:45.866Z,14.69
2018-11-07T15:35:15.094Z,14.67
2018-11-07T15:37:44.251Z,14.59
2018-11-07T15:40:14.698Z,14.47
2018-11-07T15:42:44.395Z,14.33
2018-11-07T15:45:15.128Z,14.24
2018-11-07T15:47:44.613Z,14.16
2018-11-07T15:50:19.547Z,14.11
2018-11-07T15:52:49.198Z,14.08
2018-11-07T15:55:18.432Z,14.02
2018-11-07T15:57:47.643Z,14.00
2018-11-07T16:00:17.928Z,13.88
2018-11-07T16:02:47.084Z,13.84
2018-11-07T16:05:16.924Z,13.79
2018-11-07T16:07:46.128Z,13.75
2018-11-07T16:10:16.026Z,13.68
2018-11-07T16:12:45.259Z,13.58
2018-11-07T16:15:16.100Z,13.53
2018-11-07T16:17:45.398Z,13.55
2018-11-07T16:20:15.987Z,13.57
2018-11-07T16:22:46.036Z,13.49
2018-11-07T16:25:15.258Z,13.40
2018-11-07T16:27:45.196Z,13.30
2018-11-07T16:30:16.894Z,13.31
2018-11-07T16:32:46.222Z,13.20
2018-11-07T16:35:15.787Z,13.13
2018-11-07T16:37:45.116Z,13.15
2018-11-07T16:40:15.495Z,13.13
2018-11-07T16:42:45.156Z,13.05
2018-11-07T16:45:15.521Z,13.00
2018-11-07T16:47:44.906Z,13.01
2018-11-07T16:50:15.393Z,12.96
2018-11-07T16:52:44.751Z,12.88
2018-11-07T16:55:14.369Z,12.81
2018-11-07T16:57:43.567Z,12.80
2018-11-07T17:00:18.019Z,12.75
2018-11-07T17:02:48.182Z,12.79
2018-11-07T17:05:18.077Z,12.73
2018-11-07T17:07:47.689Z,12.67
2018-11-07T17:10:17.269Z,12.63
2018-11-07T17:12:46.618Z,12.59
2018-11-07T17:15:15.998Z,12.53
2018-11-07T17:17:45.237Z,12.47
2018-11-07T17:20:15.429Z,12.44
2018-11-07T17:22:44.986Z,12.42
2018-11-07T17:25:16.447Z,12.39
2018-11-07T17:27:45.745Z,12.37
2018-11-07T17:30:16.051Z,12.39
2018-11-07T17:32:45.290Z,12.36
2018-11-07T17:35:15.871Z,12.32
2018-11-07T17:37:45.580Z,12.29
2018-11-07T17:40:17.397Z,12.23
2018-11-07T17:42:47.217Z,12.17
2018-11-07T17:45:18.086Z,12.13
2018-11-07T17:47:48.244Z,12.11
2018-11-07T17:50:18.165Z,12.04
2018-11-07T17:52:47.634Z,12.01
2018-11-07T17:55:17.715Z,11.99
2018-11-07T17:57:47.014Z,11.97
2018-11-07T18:00:18.630Z,11.92
2018-11-07T18:02:47.988Z,11.83
2018-11-07T18:05:17.320Z,11.74
2018-11-07T18:07:46.987Z,11.67
2018-11-07T18:10:17.603Z,11.61
2018-11-07T18:12:47.336Z,11.56
2018-11-07T18:15:16.580Z,11.49
2018-11-07T18:17:45.765Z,11.44
2018-11-07T18:20:15.791Z,11.39
2018-11-07T18:22:45.026Z,11.28
2018-11-07T18:25:15.150Z,11.24
2018-11-07T18:27:44.386Z,11.19
2018-11-07T18:30:14.859Z,11.18
2018-11-07T18:32:44.767Z,11.12
2018-11-07T18:35:15.446Z,11.04
2018-11-07T18:37:44.752Z,10.98
2018-11-07T18:40:15.705Z,10.92
2018-11-07T18:42:44.917Z,10.84
2018-11-07T18:45:14.509Z,10.80
2018-11-07T18:47:45.317Z,10.74
2018-11-07T18:50:17.119Z,10.70
2018-11-07T18:52:46.312Z,10.66
2018-11-07T18:55:16.626Z,10.58
2018-11-07T18:57:46.461Z,10.53
2018-11-07T19:00:17.698Z,10.41
2018-11-07T19:02:47.635Z,10.40
2018-11-07T19:05:17.002Z,10.35
2018-11-07T19:07:46.314Z,10.26
2018-11-07T19:10:17.707Z,10.20
2018-11-07T19:12:47.936Z,10.14
2018-11-07T19:15:17.760Z,10.11
2018-11-07T19:18:56.814Z,10.06
2018-11-07T19:21:26.185Z,10.04
2018-11-07T19:23:55.690Z,10.02
2018-11-07T19:26:25.060Z,9.95
2018-11-07T19:28:54.270Z,9.94
2018-11-07T19:31:23.591Z,9.92
2018-11-07T19:33:52.863Z,9.86
2018-11-07T19:36:22.076Z,9.83
2018-11-07T19:38:51.235Z,9.80
2018-11-07T19:41:20.486Z,9.77
2018-11-07T19:43:49.789Z,9.71
2018-11-07T19:46:19.012Z,9.65
2018-11-07T19:48:48.228Z,9.60
2018-11-07T19:51:17.400Z,9.59
2018-11-07T19:53:46.768Z,9.57
2018-11-07T19:56:16.097Z,9.57
2018-11-07T19:58:46.011Z,9.62
2018-11-07T20:01:15.432Z,9.62
2018-11-07T20:03:44.691Z,9.58
2018-11-07T20:06:14.038Z,9.54
2018-11-07T20:08:43.247Z,9.50
2018-11-07T20:11:12.576Z,9.46
2018-11-07T20:13:41.924Z,9.44
2018-11-07T20:16:11.940Z,9.40
2018-11-07T20:18:41.199Z,9.37
2018-11-07T20:21:10.454Z,9.36
2018-11-07T20:23:39.684Z,9.34
2018-11-07T20:26:09.076Z,9.36
2018-11-07T20:28:38.438Z,9.34
2018-11-07T20:31:07.800Z,9.31
2018-11-07T20:33:37.866Z,9.29
2018-11-07T20:36:07.202Z,9.27
2018-11-07T20:38:36.435Z,9.39
2018-11-07T20:41:05.907Z,9.36
2018-11-07T20:43:35.269Z,9.26
2018-11-07T20:46:04.523Z,9.25
2018-11-07T20:48:33.787Z,9.25
2018-11-07T20:51:03.113Z,9.24
2018-11-07T20:53:32.354Z,9.19
2018-11-07T20:56:01.808Z,9.16
2018-11-07T20:58:31.304Z,9.14
2018-11-07T21:01:00.566Z,9.16
2018-11-07T21:03:29.786Z,9.16
2018-11-07T21:05:59.075Z,9.16
2018-11-07T21:08:28.296Z,9.18
2018-11-07T21:10:57.678Z,9.16
2018-11-07T21:13:26.942Z,9.18
2018-11-07T21:15:56.262Z,9.20
2018-11-07T21:18:25.487Z,9.19
2018-11-07T21:20:54.717Z,9.19
2018-11-07T21:23:23.861Z,9.18
2018-11-07T21:25:53.070Z,9.16
2018-11-07T21:28:22.333Z,9.16
2018-11-07T21:30:51.559Z,9.15
2018-11-07T21:33:21.492Z,9.15
2018-11-07T21:35:50.697Z,9.13
2018-11-07T21:38:20.060Z,9.14
2018-11-07T21:40:49.345Z,9.14
2018-11-07T21:43:18.703Z,9.15
2018-11-07T21:45:47.901Z,9.17
2018-11-07T21:48:19.838Z,9.20
2018-11-07T21:50:49.109Z,9.24
2018-11-07T21:53:19.031Z,9.27
2018-11-07T21:55:48.234Z,9.26
2018-11-07T21:58:17.447Z,9.23
2018-11-07T22:00:46.665Z,9.21
2018-11-07T22:03:15.876Z,9.19
2018-11-07T22:05:45.017Z,9.17
2018-11-07T22:08:14.320Z,9.08
2018-11-07T22:10:43.469Z,9.05
2018-11-07T22:13:12.684Z,9.04
2018-11-07T22:15:42.682Z,9.02
2018-11-07T22:18:12.541Z,8.97
2018-11-07T22:20:41.755Z,8.92
2018-11-07T22:23:11.534Z,8.90
2018-11-07T22:25:40.688Z,8.86
2018-11-07T22:28:09.863Z,8.81
2018-11-07T22:30:39.025Z,8.77
2018-11-07T22:33:08.334Z,8.77
2018-11-07T22:35:37.494Z,8.85
2018-11-07T22:38:06.691Z,8.88
2018-11-07T22:40:35.863Z,8.88
2018-11-07T22:43:05.408Z,8.92
2018-11-07T22:45:34.576Z,8.94
2018-11-07T22:48:03.834Z,8.94
2018-11-07T22:50:33.067Z,8.86
2018-11-07T22:53:02.284Z,8.78
2018-11-07T22:55:31.646Z,8.77
2018-11-07T22:58:00.822Z,8.74
2018-11-07T23:00:35.490Z,8.70
2018-11-07T23:03:04.830Z,8.61
2018-11-07T23:05:34.026Z,8.57
2018-11-07T23:08:03.236Z,8.51
2018-11-07T23:10:32.424Z,8.46
2018-11-07T23:13:02.474Z,8.42
2018-11-07T23:15:36.766Z,8.39
2018-11-07T23:18:06.415Z,8.36
2018-11-07T23:20:35.644Z,8.27
2018-11-07T23:23:05.063Z,8.31
2018-11-07T23:25:34.250Z,8.28
2018-11-07T23:28:03.814Z,8.27
2018-11-07T23:30:32.983Z,8.28
2018-11-07T23:33:03.266Z,8.23
2018-11-07T23:35:32.538Z,8.21
2018-11-07T23:38:01.711Z,8.20
2018-11-07T23:40:30.907Z,8.20
2018-11-07T23:43:00.119Z,8.21
2018-11-07T23:45:29.341Z,8.20
2018-11-07T23:47:58.549Z,8.12
2018-11-07T23:50:27.723Z,8.11
2018-11-07T23:52:56.901Z,8.13
2018-11-07T23:55:26.503Z,8.10
2018-11-07T23:57:55.697Z,8.10
